Dades meteomassalio
Diari Summary for Febrer 10, 2018 Units:  Metric    English   Both
« Previous Day
Next Day »
Diari Semanal Mensual Anual Personalitzat
  Maxima: Minima: Mijana:
Temperatura: -17.8 °C -16.2 °C -14.8 °C
Rosada: -17.8 °C -18.4 °C -17.6 °C
Humitat: Humidity % 54 % 70 %
Velocitat del vent: 0 km/h 20.9 km/h 52.3 km/h
Racha vent: 0 km/h - -
Vent:- - WNW
Pressio: 0 hPa 34554.1 hPa -
Pluja: 0 mm    
Historical Graphs
 
 
Tabular Data for Febrer 10, 2018
Time Temperature Dew Point Pressure Wind Wind Speed Wind Gust Humidity Rainfall Rate (Hourly) solar Conditions
-17.8 °C -17.8 °C 0 hPa Calm     Humidity % 0 mm SolarRadiationWatts/m^2 W/m2 Conditions
00:04 -15 °C -16.8 °C 34611.7 hPa NNW 54.4 km/h 54.4 km/h 79 % 0 mm 0.0 W/m2 RA
00:09 -15 °C -16.8 °C 34625.2 hPa NNW 68.6 km/h 68.6 km/h 79 % 0 mm 0.0 W/m2 CLR
00:14 -15 °C -16.8 °C 34625.2 hPa NW 38.8 km/h 38.8 km/h 79 % 0 mm 0.0 W/m2 CLR
00:19 -15 °C -16.9 °C 34625.2 hPa NNW 59.5 km/h 59.5 km/h 78 % 0 mm 0.0 W/m2 CLR
00:24 -15 °C -17.1 °C 34635.4 hPa North 64.7 km/h 64.7 km/h 77 % 0 mm 0.0 W/m2 CLR
00:29 -15 °C -17.2 °C 34635.4 hPa NNW 56.6 km/h 56.6 km/h 76 % 0 mm 0.0 W/m2 CLR
00:34 -15.3 °C -17.4 °C 34635.4 hPa North 57 km/h 57 km/h 76 % 0 mm 0.0 W/m2 CLR
00:39 -15.3 °C -17.6 °C 34635.4 hPa North 56.6 km/h 56.6 km/h 75 % 0 mm 0.0 W/m2 CLR
00:44 -15.3 °C -17.6 °C 34635.4 hPa NNW 54.4 km/h 54.4 km/h 75 % 0 mm 0.0 W/m2 CLR
00:49 -15.3 °C -17.6 °C 34635.4 hPa NNW 53.6 km/h 53.6 km/h 75 % 0 mm 0.0 W/m2 CLR
00:54 -15.3 °C -17.6 °C 34635.4 hPa NW 74.5 km/h 74.5 km/h 75 % 0 mm 0.0 W/m2 CLR
00:59 -15.3 °C -17.6 °C 34635.4 hPa NNW 59.5 km/h 59.5 km/h 75 % 0 mm 0.0 W/m2 CLR
01:04 -15.3 °C -17.6 °C 34635.4 hPa NW 65.5 km/h 65.5 km/h 75 % 0 mm 0.0 W/m2 CLR
01:09 -15.3 °C -17.6 °C 34635.4 hPa NW 59.5 km/h 59.5 km/h 75 % 0 mm 0.0 W/m2 CLR
01:14 -15.3 °C -17.4 °C 34635.4 hPa North 53.6 km/h 53.6 km/h 76 % 0 mm 0.0 W/m2 CLR
01:19 -15.3 °C -17.4 °C 34635.4 hPa North 53.6 km/h 53.6 km/h 76 % 0 mm 0.0 W/m2 CLR
01:24 -15.3 °C -17.4 °C 34635.4 hPa NW 47.6 km/h 47.6 km/h 76 % 0 mm 0.0 W/m2 CLR
01:29 -15.3 °C -17.6 °C 34645.6 hPa NNW 74.5 km/h 74.5 km/h 75 % 0 mm 0.0 W/m2 CLR
01:34 -15.3 °C -17.6 °C 34645.6 hPa NNW 62.6 km/h 62.6 km/h 75 % 0 mm 0.0 W/m2 CLR
01:39 -15.3 °C -17.6 °C 34635.4 hPa NNW 59.5 km/h 59.5 km/h 75 % 0 mm 0.0 W/m2 CLR
01:44 -15.3 °C -17.6 °C 34635.4 hPa North 67.3 km/h 67.3 km/h 75 % 0 mm 0.0 W/m2 CLR
01:49 -15.6 °C -17.9 °C 34635.4 hPa NW 74.5 km/h 74.5 km/h 75 % 0 mm 0.0 W/m2 CLR
01:54 -15.6 °C -17.9 °C 34635.4 hPa NW 71.5 km/h 71.5 km/h 75 % 0 mm 0.0 W/m2 CLR
01:59 -15.6 °C -17.9 °C 34635.4 hPa NNW 57 km/h 57 km/h 75 % 0 mm 0.0 W/m2 CLR
02:04 -15.6 °C -17.9 °C 34635.4 hPa NNW 56.6 km/h 56.6 km/h 75 % 0 mm 0.0 W/m2 CLR
02:09 -15.6 °C -17.9 °C 34635.4 hPa NW 54.4 km/h 54.4 km/h 74 % 0 mm 0.0 W/m2 CLR
02:14 -15.6 °C -17.9 °C 34635.4 hPa NNW 57 km/h 57 km/h 74 % 0 mm 0.0 W/m2 CLR
02:20 -15.6 °C -17.9 °C 34635.4 hPa NNW 35.7 km/h 35.7 km/h 74 % 0 mm 0.0 W/m2 CLR
02:25 -15.6 °C -17.9 °C 34635.4 hPa North 62.1 km/h 62.1 km/h 75 % 0 mm 0.0 W/m2 CLR
02:30 -15.6 °C -17.9 °C 34635.4 hPa NW 44.7 km/h 44.7 km/h 75 % 0 mm 0.0 W/m2 CLR
02:35 -15.6 °C -17.9 °C 34635.4 hPa NNW 50.7 km/h 55.7 km/h 75 % 0 mm 0.0 W/m2 CLR
02:40 -15.6 °C -17.9 °C 34635.4 hPa NNW 50.7 km/h 50.7 km/h 75 % 0 mm 0.0 W/m2 CLR
02:45 -15.9 °C -18.2 °C 34635.4 hPa WNW 50.7 km/h 50.7 km/h 75 % 0 mm 0.0 W/m2 CLR
02:50 -15.9 °C -18.3 °C 34635.4 hPa NW 57 km/h 57 km/h 74 % 0 mm 0.0 W/m2 CLR
02:55 -15.6 °C -17.9 °C 34635.4 hPa NNW 47.6 km/h 47.6 km/h 74 % 0 mm 0.0 W/m2 CLR
03:00 -15.6 °C -17.9 °C 34635.4 hPa NW 38.8 km/h 38.8 km/h 74 % 0 mm 0.0 W/m2 CLR
03:05 -15.9 °C -18.3 °C 34635.4 hPa NW 41.7 km/h 41.7 km/h 74 % 0 mm 0.0 W/m2 CLR
03:10 -15.9 °C -18.3 °C 34625.2 hPa NNW 65.5 km/h 65.5 km/h 74 % 0 mm 0.0 W/m2 CLR
03:15 -15.9 °C -18.2 °C 34625.2 hPa North 59.5 km/h 59.5 km/h 75 % 0 mm 0.0 W/m2 CLR
03:20 -15.9 °C -18.3 °C 34625.2 hPa North 62.6 km/h 62.6 km/h 74 % 0 mm 0.0 W/m2 CLR
03:25 -15.9 °C -18.3 °C 34611.7 hPa NNW 74.5 km/h 74.5 km/h 74 % 0 mm 0.0 W/m2 CLR
03:30 -15.9 °C -18.3 °C 34611.7 hPa NNW 68.6 km/h 68.6 km/h 74 % 0 mm 0.0 W/m2 CLR
03:35 -15.9 °C -18.3 °C 34611.7 hPa NNW 74.5 km/h 74.5 km/h 74 % 0 mm 0.0 W/m2 CLR
03:40 -15.9 °C -18.3 °C 34611.7 hPa NNW 44.7 km/h 47.6 km/h 74 % 0 mm 0.0 W/m2 CLR
03:45 -15.9 °C -18.3 °C 34611.7 hPa North 59.5 km/h 59.5 km/h 74 % 0 mm 0.0 W/m2 CLR
03:50 -15.9 °C -18.3 °C 34601.5 hPa North 56.6 km/h 56.6 km/h 74 % 0 mm 0.0 W/m2 CLR
03:55 -15.9 °C -18.3 °C 34601.5 hPa North 51.8 km/h 51.8 km/h 74 % 0 mm 0.0 W/m2 CLR
04:00 -15.9 °C -18.2 °C 34601.5 hPa North 50.7 km/h 50.7 km/h 75 % 0 mm 0.0 W/m2 CLR
04:05 -15.9 °C -18.2 °C 34611.7 hPa NNW 50.7 km/h 50.7 km/h 75 % 0 mm 0.0 W/m2 CLR
04:10 -15.9 °C -18.2 °C 34611.7 hPa NW 57 km/h 57 km/h 75 % 0 mm 0.0 W/m2 CLR
04:15 -15.9 °C -18.2 °C 34611.7 hPa NW 38.8 km/h 38.8 km/h 75 % 0 mm 0.0 W/m2 CLR
04:20 -15.9 °C -18.2 °C 34611.7 hPa NNW 68.6 km/h 68.6 km/h 75 % 0 mm 0.0 W/m2 CLR
04:25 -15.9 °C -18.2 °C 34611.7 hPa NNW 50.7 km/h 50.7 km/h 75 % 0 mm 0.0 W/m2 CLR
04:30 -15.9 °C -18.2 °C 34611.7 hPa NNW 65.5 km/h 65.5 km/h 75 % 0 mm 0.0 W/m2 CLR
04:35 -15.9 °C -18.2 °C 34611.7 hPa North 50.7 km/h 50.7 km/h 75 % 0 mm 0.0 W/m2 CLR
04:40 -15.9 °C -18.2 °C 34611.7 hPa NW 44.7 km/h 44.7 km/h 75 % 0 mm 0.0 W/m2 CLR
04:45 -15.9 °C -18.2 °C 34611.7 hPa NNW 56.6 km/h 56.6 km/h 75 % 0 mm 0.0 W/m2 CLR
04:50 -15.9 °C -18.2 °C 34611.7 hPa North 53.6 km/h 53.6 km/h 75 % 0 mm 0.0 W/m2 CLR
04:55 -15.9 °C -18.2 °C 34611.7 hPa North 69.8 km/h 69.8 km/h 75 % 0 mm 0.0 W/m2 CLR
05:00 -15.9 °C -18.2 °C 34611.7 hPa NNW 68.6 km/h 68.6 km/h 75 % 0 mm 0.0 W/m2 CLR
05:05 -15.9 °C -18.1 °C 34611.7 hPa NNW 56.6 km/h 56.6 km/h 76 % 0 mm 0.0 W/m2 CLR
05:10 -15.9 °C -18.1 °C 34611.7 hPa North 65.5 km/h 65.5 km/h 76 % 0 mm 0.0 W/m2 CLR
05:15 -15.9 °C -18.1 °C 34611.7 hPa NW 53.6 km/h 53.6 km/h 76 % 0 mm 0.0 W/m2 CLR
05:20 -15.9 °C -18.1 °C 34625.2 hPa NNW 50.7 km/h 50.7 km/h 76 % 0 mm 0.0 W/m2 CLR
05:25 -15.9 °C -18.1 °C 34625.2 hPa North 56.6 km/h 56.6 km/h 76 % 0 mm 0.0 W/m2 CLR
05:30 -15.9 °C -18.1 °C 34625.2 hPa North 44.7 km/h 44.7 km/h 76 % 0 mm 0.0 W/m2 CLR
05:35 -15.9 °C -18.1 °C 34625.2 hPa North 65.5 km/h 65.5 km/h 76 % 0 mm 0.0 W/m2 CLR
05:40 -15.9 °C -18.1 °C 34625.2 hPa NNW 50.7 km/h 50.7 km/h 76 % 0 mm 0.0 W/m2 CLR
05:45 -15.9 °C -18.1 °C 34625.2 hPa NNW 65.5 km/h 65.5 km/h 76 % 0 mm 0.0 W/m2 CLR
05:50 -16.2 °C -18.4 °C 34625.2 hPa North 49.2 km/h 49.2 km/h 76 % 0 mm 0.0 W/m2 CLR
05:55 -16.2 °C -18.4 °C 34611.7 hPa NNW 68.6 km/h 68.6 km/h 76 % 0 mm 0.0 W/m2 CLR
06:00 -16.2 °C -18.4 °C 34625.2 hPa NNW 68.6 km/h 68.6 km/h 76 % 0 mm 0.0 W/m2 CLR
06:05 -16.2 °C -18.2 °C 34611.7 hPa North 47.6 km/h 47.6 km/h 77 % 0 mm 0.0 W/m2 CLR
06:10 -16.2 °C -18.2 °C 34625.2 hPa NNW 38.8 km/h 38.8 km/h 77 % 0 mm 0.0 W/m2 CLR
06:15 -16.2 °C -18.2 °C 34611.7 hPa NNW 41.7 km/h 41.7 km/h 77 % 0 mm 0.0 W/m2 CLR
06:20 -16.2 °C -18.2 °C 34611.7 hPa North 44.7 km/h 44.7 km/h 77 % 0 mm 0.0 W/m2 CLR
06:25 -16.2 °C -18.4 °C 34611.7 hPa NNW 50.7 km/h 50.7 km/h 76 % 0 mm 0.0 W/m2 CLR
06:30 -16.2 °C -18.4 °C 34611.7 hPa NW 44.7 km/h 44.7 km/h 75 % 0 mm 0.0 W/m2 CLR
06:35 -16.2 °C -18.4 °C 34611.7 hPa NNW 32.8 km/h 32.8 km/h 76 % 0 mm 0.0 W/m2 CLR
06:40 -16.2 °C -18.4 °C 34611.7 hPa NNW 54.4 km/h 54.4 km/h 76 % 0 mm 0.0 W/m2 CLR
06:45 -16.2 °C -18.4 °C 34611.7 hPa NW 59.5 km/h 59.5 km/h 75 % 0 mm 0.0 W/m2 CLR
06:50 -16.2 °C -18.4 °C 34611.7 hPa NNW 36.2 km/h 36.2 km/h 75 % 0 mm 0.0 W/m2 CLR
06:55 -16.2 °C -18.4 °C 34611.7 hPa North 47.6 km/h 47.6 km/h 76 % 0 mm 0.0 W/m2 CLR
07:00 -16.2 °C -18.4 °C 34611.7 hPa North 50.7 km/h 50.7 km/h 76 % 0 mm 0.0 W/m2 CLR
07:05 -16.2 °C -18.2 °C 34601.5 hPa North 44.7 km/h 44.7 km/h 77 % 0 mm 0.0 W/m2 CLR
07:10 -16.2 °C -18.2 °C 34601.5 hPa NNW 59.5 km/h 59.5 km/h 77 % 0 mm 0.0 W/m2 CLR
07:15 -16.2 °C -18.2 °C 34601.5 hPa NW 47.6 km/h 47.6 km/h 77 % 0 mm 0.0 W/m2 CLR
07:20 -16.2 °C -18.2 °C 34611.7 hPa NNW 59.5 km/h 59.5 km/h 77 % 0 mm 0.0 W/m2 CLR
07:25 -16.2 °C -18.2 °C 34611.7 hPa NNW 38.8 km/h 38.8 km/h 77 % 0 mm 0.0 W/m2 CLR
07:30 -16.2 °C -18.2 °C 34611.7 hPa NNW 53.6 km/h 53.6 km/h 77 % 0 mm 0.0 W/m2 CLR
07:35 -16.2 °C -18.2 °C 34625.2 hPa North 56.6 km/h 56.6 km/h 77 % 0 mm 0.0 W/m2 CLR
07:40 -16.2 °C -18.2 °C 34625.2 hPa NNW 62.6 km/h 62.6 km/h 77 % 0 mm 0.0 W/m2 CLR
07:45 -16.2 °C -18.2 °C 34625.2 hPa North 50.7 km/h 50.7 km/h 77 % 0 mm 0.0 W/m2 CLR
07:50 -16.2 °C -18.2 °C 34625.2 hPa North 50.7 km/h 50.7 km/h 77 % 0 mm 0.0 W/m2 CLR
07:55 -16.2 °C -18.2 °C 34625.2 hPa North 41.7 km/h 41.7 km/h 78 % 0 mm 0.0 W/m2 CLR
08:00 -16.2 °C -18.2 °C 34625.2 hPa NNW 51.8 km/h 51.8 km/h 78 % 0 mm 5.0 W/m2 OVC
08:05 -16.2 °C -18.2 °C 34625.2 hPa North 38.8 km/h 38.8 km/h 78 % 0 mm 7.0 W/m2 BKN
08:10 -16.2 °C -18.2 °C 34635.4 hPa North 38.8 km/h 38.8 km/h 78 % 0 mm 9.0 W/m2 BKN
08:15 -16.2 °C -18.2 °C 34635.4 hPa NNW 50.7 km/h 50.7 km/h 78 % 0 mm 12.0 W/m2 BKN
08:20 -16.2 °C -18.2 °C 34635.4 hPa North 41.7 km/h 41.7 km/h 78 % 0 mm 16.0 W/m2 BKN
08:25 -16.2 °C -18.2 °C 34635.4 hPa North 41.7 km/h 41.7 km/h 78 % 0 mm 18.0 W/m2 BKN
08:30 -16.2 °C -18.2 °C 34635.4 hPa NNW 59.5 km/h 59.5 km/h 78 % 0 mm 23.0 W/m2 BKN
08:35 -16.2 °C -18.2 °C 34635.4 hPa North 47.6 km/h 47.6 km/h 78 % 0 mm 30.0 W/m2 BKN
08:40 -16.2 °C -18.2 °C 34645.6 hPa NNW 68.6 km/h 68.6 km/h 78 % 0 mm 37.0 W/m2 BKN
08:46 -16.2 °C -18.2 °C 34645.6 hPa North 59.5 km/h 59.5 km/h 77 % 0 mm 46.0 W/m2 BKN
08:51 -15.9 °C -17.9 °C 34645.6 hPa North 50.7 km/h 50.7 km/h 77 % 0 mm 60.0 W/m2 SCT
08:56 -15.9 °C -17.9 °C 34645.6 hPa NNW 47.6 km/h 47.6 km/h 77 % 0 mm 77.0 W/m2 FEW
09:01 -15.9 °C -17.9 °C 34635.4 hPa NNW 56.6 km/h 56.6 km/h 77 % 0 mm 95.0 W/m2 CLR
09:06 -15.9 °C -17.9 °C 34635.4 hPa NNW 53.6 km/h 53.6 km/h 77 % 0 mm 113.0 W/m2 CLR
09:11 -15.9 °C -17.9 °C 34635.4 hPa North 59.5 km/h 59.5 km/h 77 % 0 mm 130.0 W/m2 CLR
09:16 -15.9 °C -18.1 °C 34635.4 hPa North 53.6 km/h 53.6 km/h 76 % 0 mm 134.0 W/m2 CLR
09:21 -15.6 °C -17.7 °C 34645.6 hPa NNW 49.2 km/h 49.2 km/h 76 % 0 mm 162.0 W/m2 CLR
09:26 -15.6 °C -17.7 °C 34645.6 hPa North 44.1 km/h 44.1 km/h 76 % 0 mm 183.0 W/m2 CLR
09:31 -15.6 °C -17.7 °C 34635.4 hPa North 54.4 km/h 54.4 km/h 76 % 0 mm 137.0 W/m2 CLR
09:36 -15.6 °C -17.7 °C 34635.4 hPa NNW 56.6 km/h 56.6 km/h 76 % 0 mm 218.0 W/m2 CLR
09:41 -15.6 °C -17.9 °C 34635.4 hPa North 68.6 km/h 68.6 km/h 75 % 0 mm 234.0 W/m2 CLR
09:46 -15.3 °C -17.4 °C 34635.4 hPa North 49.2 km/h 49.2 km/h 76 % 0 mm 250.0 W/m2 CLR
09:51 -15.3 °C -17.6 °C 34635.4 hPa NNW 56.6 km/h 56.6 km/h 75 % 0 mm 267.0 W/m2 CLR
09:56 -15.3 °C -17.7 °C 34635.4 hPa NNW 59.5 km/h 59.5 km/h 74 % 0 mm 281.0 W/m2 CLR
10:01 -15.3 °C -17.7 °C 34645.6 hPa North 59.5 km/h 59.5 km/h 74 % 0 mm 294.0 W/m2 CLR
10:06 -15 °C -17.4 °C 34645.6 hPa NNW 62.6 km/h 62.6 km/h 73 % 0 mm 308.0 W/m2 CLR
10:11 -15 °C -17.6 °C 34635.4 hPa North 68.6 km/h 68.6 km/h 72 % 0 mm 323.0 W/m2 CLR
10:16 -15 °C -17.6 °C 34635.4 hPa North 80.5 km/h 80.5 km/h 72 % 0 mm 336.0 W/m2 CLR
10:21 -15 °C -17.6 °C 34635.4 hPa North 59.5 km/h 59.5 km/h 72 % 0 mm 350.0 W/m2 CLR
10:26 -14.7 °C -17.4 °C 34635.4 hPa NNW 77.7 km/h 77.7 km/h 71 % 0 mm 362.0 W/m2 CLR
10:31 -14.7 °C -17.3 °C 34635.4 hPa NNE 50.7 km/h 50.7 km/h 72 % 0 mm 381.0 W/m2 CLR
10:36 -14.7 °C -17.4 °C 34635.4 hPa North 68.6 km/h 68.6 km/h 71 % 0 mm 401.0 W/m2 CLR
10:41 -14.7 °C -17.4 °C 34625.2 hPa NNW 59.5 km/h 59.5 km/h 71 % 0 mm 406.0 W/m2 CLR
10:46 -14.7 °C -17.5 °C 34635.4 hPa NNE 62.6 km/h 62.6 km/h 70 % 0 mm 424.0 W/m2 CLR
10:51 -14.4 °C -17.2 °C 34635.4 hPa North 71.5 km/h 71.5 km/h 70 % 0 mm 429.0 W/m2 CLR
10:56 -14.4 °C -17.3 °C 34635.4 hPa North 83.4 km/h 83.4 km/h 69 % 0 mm 436.0 W/m2 CLR
11:01 -14.4 °C -17.3 °C 34635.4 hPa North 74.5 km/h 74.5 km/h 69 % 0 mm 446.0 W/m2 CLR
11:06 -14.4 °C -17.2 °C 34635.4 hPa NNE 44.7 km/h 44.7 km/h 70 % 0 mm 459.0 W/m2 CLR
11:11 -14.1 °C -17.3 °C 34645.6 hPa NNE 71.5 km/h 71.5 km/h 67 % 0 mm 478.0 W/m2 CLR
11:16 -14.1 °C -17 °C 34645.6 hPa NE 68.6 km/h 68.6 km/h 69 % 0 mm 512.0 W/m2 CLR
11:21 -14.1 °C -17.3 °C 34659.1 hPa NNE 59.5 km/h 59.5 km/h 67 % 0 mm 98.0 W/m2 CLR
11:26 -14.1 °C -17 °C 34659.1 hPa NNE 47.6 km/h 47.6 km/h 69 % 0 mm 568.0 W/m2 CLR
11:31 -14.1 °C -17.1 °C 34645.6 hPa North 44.1 km/h 44.1 km/h 68 % 0 mm 519.0 W/m2 CLR
11:36 -14.1 °C -17.4 °C 34659.1 hPa NNE 68.6 km/h 68.6 km/h 65 % 0 mm 524.0 W/m2 CLR
11:41 -14.1 °C -17.3 °C 34659.1 hPa North 68.6 km/h 68.6 km/h 66 % 0 mm 564.0 W/m2 CLR
11:46 -13.8 °C -17.2 °C 34645.6 hPa NNW 68.6 km/h 68.6 km/h 65 % 0 mm 545.0 W/m2 CLR
11:51 -13.4 °C -16.8 °C 34645.6 hPa NNE 68.6 km/h 68.6 km/h 66 % 0 mm 526.0 W/m2 CLR
11:56 -13.8 °C -17.1 °C 34645.6 hPa North 68.6 km/h 68.6 km/h 66 % 0 mm 573.0 W/m2 CLR
12:01 -13.4 °C -16.6 °C 34645.6 hPa NNW 68.6 km/h 68.6 km/h 67 % 0 mm 596.0 W/m2 CLR
12:06 -13.4 °C -16.9 °C 34645.6 hPa North 68.6 km/h 68.6 km/h 65 % 0 mm 538.0 W/m2 CLR
12:11 -13.4 °C -16.9 °C 34635.4 hPa NNW 77.4 km/h 77.4 km/h 65 % 0 mm 621.0 W/m2 CLR
12:16 -13.2 °C -16.7 °C 34635.4 hPa NNE 41.7 km/h 41.7 km/h 64 % 0 mm 682.0 W/m2 CLR
12:21 -13.4 °C -17.5 °C 34645.6 hPa NNE 56.6 km/h 56.6 km/h 60 % 0 mm 151.0 W/m2 CLR
12:26 -13.8 °C -17.9 °C 34635.4 hPa NNE 59.5 km/h 59.5 km/h 59 % 0 mm 594.0 W/m2 CLR
12:31 -13.2 °C -17.4 °C 34635.4 hPa NNE 54.4 km/h 54.4 km/h 58 % 0 mm 615.0 W/m2 CLR
12:36 -13.2 °C -17.1 °C 34635.4 hPa North 41.7 km/h 41.7 km/h 61 % 0 mm 645.0 W/m2 CLR
12:41 -13.4 °C -17.6 °C 34625.2 hPa NNE 41.7 km/h 41.7 km/h 59 % 0 mm 675.0 W/m2 CLR
12:46 -13.2 °C -18 °C 34625.2 hPa North 68.6 km/h 68.6 km/h 54 % 0 mm 659.0 W/m2 CLR
12:51 -12.8 °C -17.7 °C 34625.2 hPa NNW 77.7 km/h 77.7 km/h 54 % 0 mm 684.0 W/m2 CLR
12:56 -12.6 °C -17.2 °C 34625.2 hPa NNW 50.7 km/h 50.7 km/h 56 % 0 mm 744.0 W/m2 CLR
13:01 -13.2 °C -17.2 °C 34625.2 hPa NNW 67.3 km/h 67.3 km/h 60 % 0 mm 134.0 W/m2 CLR
13:06 -13.4 °C -17.5 °C 34625.2 hPa North 59.5 km/h 59.5 km/h 60 % 0 mm 297.0 W/m2 CLR
13:11 -12.8 °C -16.6 °C 34625.2 hPa North 50.7 km/h 50.7 km/h 63 % 0 mm 812.0 W/m2 CLR
13:16 -12.8 °C -16.9 °C 34625.2 hPa North 65.5 km/h 65.5 km/h 60 % 0 mm 290.0 W/m2 CLR
13:21 -13.2 °C -17 °C 34611.7 hPa North 41.4 km/h 41.4 km/h 62 % 0 mm 816.0 W/m2 CLR
13:26 -12.8 °C -16.8 °C 34625.2 hPa NNW 49.2 km/h 49.2 km/h 61 % 0 mm 241.0 W/m2 CLR
13:31 -13.2 °C -17.3 °C 34611.7 hPa North 50.7 km/h 50.7 km/h 59 % 0 mm 202.0 W/m2 CLR
13:36 -13.4 °C -17.5 °C 34611.7 hPa North 65.5 km/h 65.5 km/h 60 % 0 mm 199.0 W/m2 CLR
13:41 -13.4 °C -17.4 °C 34601.5 hPa NNE 50.7 km/h 50.7 km/h 61 % 0 mm 237.0 W/m2 CLR
13:46 -13.2 °C -17.1 °C 34601.5 hPa North 53.6 km/h 53.6 km/h 61 % 0 mm 148.0 W/m2 CLR
13:51 -13.4 °C -17.4 °C 34601.5 hPa NNE 50.7 km/h 50.7 km/h 61 % 0 mm 712.0 W/m2 CLR
13:56 -12.8 °C -16.8 °C 34601.5 hPa NNE 56.6 km/h 56.6 km/h 61 % 0 mm 717.0 W/m2 CLR
14:01 -12.8 °C -16.8 °C 34601.5 hPa North 50.7 km/h 50.7 km/h 61 % 0 mm 137.0 W/m2 CLR
14:06 -12.8 °C -16.6 °C 34591.4 hPa North 62.6 km/h 62.6 km/h 63 % 0 mm 626.0 W/m2 CLR
14:11 -12.8 °C -16.8 °C 34591.4 hPa North 62.6 km/h 62.6 km/h 61 % 0 mm 598.0 W/m2 CLR
14:16 -12.6 °C -16.3 °C 34577.8 hPa NNW 68.6 km/h 68.6 km/h 63 % 0 mm 596.0 W/m2 CLR
14:21 -12.6 °C -16.4 °C 34577.8 hPa North 54.4 km/h 54.4 km/h 62 % 0 mm 577.0 W/m2 CLR
14:26 -12.6 °C -16.4 °C 34577.8 hPa NNW 56.6 km/h 56.6 km/h 62 % 0 mm 570.0 W/m2 CLR
14:31 -12.6 °C -16.4 °C 34577.8 hPa NNW 62.6 km/h 62.6 km/h 62 % 0 mm 594.0 W/m2 CLR
14:36 -12.6 °C -16.5 °C 34577.8 hPa NNW 64.7 km/h 64.7 km/h 61 % 0 mm 564.0 W/m2 CLR
14:42 -12.2 °C -16.1 °C 34577.8 hPa NW 68.6 km/h 68.6 km/h 62 % 0 mm 554.0 W/m2 CLR
14:47 -12.2 °C -16.2 °C 34577.8 hPa North 77.4 km/h 77.4 km/h 61 % 0 mm 571.0 W/m2 CLR
14:52 -12.2 °C -16.3 °C 34567.7 hPa North 59.5 km/h 59.5 km/h 60 % 0 mm 132.0 W/m2 CLR
14:57 -12.6 °C -16.8 °C 34567.7 hPa NNW 59.5 km/h 59.5 km/h 59 % 0 mm 571.0 W/m2 CLR
15:02 -12.6 °C -16.8 °C 34567.7 hPa North 41.7 km/h 41.7 km/h 59 % 0 mm 555.0 W/m2 CLR
15:07 -12.6 °C -16.9 °C 34567.7 hPa North 59.5 km/h 59.5 km/h 58 % 0 mm 559.0 W/m2 CLR
15:12 -11.9 °C -16.3 °C 34567.7 hPa North 53.6 km/h 53.6 km/h 58 % 0 mm 555.0 W/m2 CLR
15:17 -11.9 °C -16.3 °C 34554.1 hPa North 47.6 km/h 47.6 km/h 58 % 0 mm 573.0 W/m2 CLR
15:22 -11.9 °C -16.4 °C 34554.1 hPa NNW 53.6 km/h 53.6 km/h 57 % 0 mm 513.0 W/m2 CLR
15:27 -12.2 °C -16.7 °C 34554.1 hPa NNW 71.5 km/h 71.5 km/h 57 % 0 mm 494.0 W/m2 CLR
15:32 -11.9 °C -16.4 °C 34554.1 hPa North 62.6 km/h 62.6 km/h 57 % 0 mm 473.0 W/m2 CLR
15:37 -12.2 °C -16.7 °C 34554.1 hPa North 50.7 km/h 50.7 km/h 57 % 0 mm 56.0 W/m2 CLR
15:42 -12.6 °C -17.1 °C 34554.1 hPa NNW 68.6 km/h 68.6 km/h 57 % 0 mm 432.0 W/m2 FEW
15:47 -12.2 °C -16.7 °C 34554.1 hPa NW 38.8 km/h 38.8 km/h 57 % 0 mm 420.0 W/m2 FEW
15:52 -12.6 °C -17.1 °C 34554.1 hPa NNW 53.6 km/h 53.6 km/h 57 % 0 mm 408.0 W/m2 CLR
15:57 -12.2 °C -16.9 °C 34554.1 hPa North 56.6 km/h 56.6 km/h 56 % 0 mm 396.0 W/m2 CLR
16:02 -12.6 °C -17.3 °C 34554.1 hPa North 59.5 km/h 59.5 km/h 55 % 0 mm 378.0 W/m2 CLR
16:07 -12.2 °C -17 °C 34554.1 hPa North 56.6 km/h 56.6 km/h 55 % 0 mm 367.0 W/m2 CLR
16:12 -12.2 °C -16.9 °C 34554.1 hPa North 54.4 km/h 54.4 km/h 56 % 0 mm 359.0 W/m2 CLR
16:17 -12.6 °C -17.3 °C 34554.1 hPa North 50.7 km/h 50.7 km/h 55 % 0 mm 341.0 W/m2 CLR
16:22 -12.6 °C -17.2 °C 34554.1 hPa NNW 77.7 km/h 77.7 km/h 56 % 0 mm 330.0 W/m2 CLR
16:27 -12.6 °C -17.2 °C 34554.1 hPa North 56.6 km/h 56.6 km/h 56 % 0 mm 318.0 W/m2 CLR
16:32 -12.6 °C -17.1 °C 34554.1 hPa North 50.7 km/h 50.7 km/h 57 % 0 mm 301.0 W/m2 CLR
16:37 -12.8 °C -17.3 °C 34554.1 hPa NNW 56.6 km/h 56.6 km/h 57 % 0 mm 51.0 W/m2 CLR
16:42 -12.8 °C -17.2 °C 34554.1 hPa NNW 54.4 km/h 54.4 km/h 58 % 0 mm 265.0 W/m2 CLR
16:47 -12.6 °C -17.2 °C 34554.1 hPa NNW 74.5 km/h 74.5 km/h 56 % 0 mm 250.0 W/m2 CLR
16:52 -12.8 °C -17.4 °C 34554.1 hPa NNW 53.6 km/h 53.6 km/h 56 % 0 mm 234.0 W/m2 CLR
16:57 -12.8 °C -17.6 °C 34554.1 hPa North 65.5 km/h 65.5 km/h 55 % 0 mm 174.0 W/m2 CLR
17:02 -12.8 °C -17.4 °C 34554.1 hPa NW 59.5 km/h 59.5 km/h 56 % 0 mm 199.0 W/m2 CLR
17:07 -12.8 °C -17.3 °C 34554.1 hPa North 50.7 km/h 50.7 km/h 57 % 0 mm 179.0 W/m2 CLR
17:12 -12.8 °C -17.1 °C 34554.1 hPa NW 71.5 km/h 71.5 km/h 59 % 0 mm 163.0 W/m2 CLR
17:17 -13.2 °C -17.2 °C 34554.1 hPa North 69.8 km/h 69.8 km/h 60 % 0 mm 116.0 W/m2 CLR
17:22 -13.2 °C -17.1 °C 34567.7 hPa North 44.7 km/h 44.7 km/h 61 % 0 mm 44.0 W/m2 FEW
17:27 -13.2 °C -17.2 °C 34567.7 hPa NNW 68.6 km/h 68.6 km/h 60 % 0 mm 39.0 W/m2 BKN
17:32 -13.4 °C -17.5 °C 34567.7 hPa NNW 68.6 km/h 68.6 km/h 60 % 0 mm 28.0 W/m2 BKN
17:37 -13.4 °C -17.5 °C 34567.7 hPa NNW 50.7 km/h 50.7 km/h 60 % 0 mm 40.0 W/m2 BKN
17:42 -13.4 °C -17.4 °C 34577.8 hPa North 68.6 km/h 68.6 km/h 61 % 0 mm 58.0 W/m2 SCT
17:47 -13.4 °C -17.4 °C 34577.8 hPa NW 50.7 km/h 50.7 km/h 61 % 0 mm 63.0 W/m2 SCT
17:52 -13.4 °C -17.4 °C 34577.8 hPa NNW 44.7 km/h 44.7 km/h 61 % 0 mm 47.0 W/m2 SCT
17:57 -13.4 °C -17.3 °C 34577.8 hPa NNW 53.6 km/h 53.6 km/h 62 % 0 mm 39.0 W/m2 BKN
18:02 -13.8 °C -17.4 °C 34577.8 hPa North 59.5 km/h 59.5 km/h 63 % 0 mm 21.0 W/m2 BKN
18:07 -13.8 °C -17.3 °C 34577.8 hPa NNW 50.7 km/h 50.7 km/h 64 % 0 mm 16.0 W/m2 BKN
18:12 -13.8 °C -17.2 °C 34577.8 hPa NNW 51.8 km/h 51.8 km/h 65 % 0 mm 12.0 W/m2 BKN
18:17 -13.8 °C -17.2 °C 34577.8 hPa North 62.6 km/h 62.6 km/h 65 % 0 mm 11.0 W/m2 BKN
18:22 -14.1 °C -17.3 °C 34577.8 hPa NNW 50.7 km/h 50.7 km/h 66 % 0 mm 7.0 W/m2 BKN
18:27 -14.1 °C -17.3 °C 34591.4 hPa NW 50.7 km/h 50.7 km/h 66 % 0 mm 5.0 W/m2 OVC
18:32 -14.1 °C -17.3 °C 34591.4 hPa NW 50.7 km/h 50.7 km/h 66 % 0 mm 0.0 W/m2 OVC
18:37 -14.1 °C -17.3 °C 34601.5 hPa NNW 54.4 km/h 54.4 km/h 66 % 0 mm 0.0 W/m2 OVC
18:42 -14.1 °C -17.3 °C 34601.5 hPa NNW 41.7 km/h 41.7 km/h 66 % 0 mm 0.0 W/m2 CLR
18:47 -14.1 °C -17.3 °C 34601.5 hPa NNW 47.6 km/h 47.6 km/h 67 % 0 mm 0.0 W/m2 CLR
18:52 -14.4 °C -17.4 °C 34601.5 hPa NNW 47.6 km/h 47.6 km/h 68 % 0 mm 0.0 W/m2 CLR
18:57 -14.4 °C -17.4 °C 34601.5 hPa NNW 50.7 km/h 50.7 km/h 68 % 0 mm 0.0 W/m2 CLR
19:02 -14.4 °C -17.3 °C 34611.7 hPa North 41.7 km/h 41.7 km/h 69 % 0 mm 0.0 W/m2 CLR
19:07 -14.4 °C -17.3 °C 34611.7 hPa NW 44.7 km/h 44.7 km/h 69 % 0 mm 0.0 W/m2 CLR
19:12 -14.4 °C -17.3 °C 34611.7 hPa NNW 50.7 km/h 50.7 km/h 69 % 0 mm 0.0 W/m2 CLR
19:17 -14.4 °C -17.2 °C 34611.7 hPa NNW 71.5 km/h 71.5 km/h 70 % 0 mm 0.0 W/m2 CLR
19:22 -14.4 °C -17.2 °C 34611.7 hPa North 56.6 km/h 56.6 km/h 70 % 0 mm 0.0 W/m2 CLR
19:27 -14.4 °C -17.2 °C 34611.7 hPa NW 41.7 km/h 41.7 km/h 70 % 0 mm 0.0 W/m2 CLR
19:32 -14.7 °C -17.5 °C 34611.7 hPa WNW 35.7 km/h 35.7 km/h 70 % 0 mm 0.0 W/m2 CLR
19:37 -14.7 °C -17.5 °C 34625.2 hPa NW 38.8 km/h 38.8 km/h 70 % 0 mm 0.0 W/m2 CLR
19:42 -14.7 °C -17.5 °C 34625.2 hPa NW 46.7 km/h 46.7 km/h 70 % 0 mm 0.0 W/m2 CLR
19:47 -14.7 °C -17.5 °C 34625.2 hPa NNW 47.6 km/h 47.6 km/h 70 % 0 mm 0.0 W/m2 CLR
19:52 -14.7 °C -17.4 °C 34625.2 hPa NW 35.7 km/h 35.7 km/h 71 % 0 mm 0.0 W/m2 CLR
19:57 -14.7 °C -17.4 °C 34625.2 hPa NNW 38.8 km/h 38.8 km/h 71 % 0 mm 0.0 W/m2 CLR
20:02 -14.7 °C -17.4 °C 34611.7 hPa NNW 53.6 km/h 53.6 km/h 71 % 0 mm 0.0 W/m2 CLR
20:07 -14.7 °C -17.3 °C 34611.7 hPa NW 50.7 km/h 50.7 km/h 72 % 0 mm 0.0 W/m2 CLR
20:12 -14.7 °C -17.4 °C 34625.2 hPa WNW 38.8 km/h 38.8 km/h 71 % 0 mm 0.0 W/m2 CLR
20:17 -15 °C -17.7 °C 34625.2 hPa NW 50.7 km/h 50.7 km/h 71 % 0 mm 0.0 W/m2 CLR
20:22 -15 °C -17.7 °C 34625.2 hPa NW 38.8 km/h 38.8 km/h 71 % 0 mm 0.0 W/m2 CLR
20:27 -15 °C -17.6 °C 34625.2 hPa NW 38.8 km/h 38.8 km/h 72 % 0 mm 0.0 W/m2 CLR
20:32 -15 °C -17.6 °C 34625.2 hPa NW 38.8 km/h 38.8 km/h 72 % 0 mm 0.0 W/m2 CLR
20:37 -15 °C -17.4 °C 34625.2 hPa NNW 41.4 km/h 41.4 km/h 73 % 0 mm 0.0 W/m2 CLR
20:43 -15 °C -17.4 °C 34625.2 hPa NNW 44.7 km/h 44.7 km/h 73 % 0 mm 0.0 W/m2 CLR
20:48 -15 °C -17.4 °C 34625.2 hPa NNW 32.8 km/h 32.8 km/h 73 % 0 mm 0.0 W/m2 CLR
20:53 -15 °C -17.4 °C 34625.2 hPa NW 41.4 km/h 41.4 km/h 73 % 0 mm 0.0 W/m2 CLR
20:58 -15 °C -17.4 °C 34625.2 hPa NNW 32.8 km/h 32.8 km/h 73 % 0 mm 0.0 W/m2 CLR
21:03 -15 °C -17.4 °C 34625.2 hPa North 47.6 km/h 47.6 km/h 74 % 0 mm 0.0 W/m2 CLR
21:08 -15 °C -17.4 °C 34635.4 hPa NW 41.7 km/h 41.7 km/h 74 % 0 mm 0.0 W/m2 CLR
21:13 -15 °C -17.3 °C 34635.4 hPa NNW 47.6 km/h 47.6 km/h 75 % 0 mm 0.0 W/m2 CLR
21:18 -15 °C -17.3 °C 34625.2 hPa NNW 41.4 km/h 41.4 km/h 75 % 0 mm 0.0 W/m2 CLR
21:23 -15 °C -17.3 °C 34635.4 hPa NW 33.6 km/h 33.6 km/h 75 % 0 mm 0.0 W/m2 CLR
21:28 -15 °C -17.3 °C 34635.4 hPa WNW 38.8 km/h 38.8 km/h 75 % 0 mm 0.0 W/m2 CLR
21:33 -15 °C -17.3 °C 34635.4 hPa NW 38.8 km/h 38.8 km/h 75 % 0 mm 0.0 W/m2 CLR
21:38 -15.3 °C -17.6 °C 34635.4 hPa NW 26.9 km/h 26.9 km/h 75 % 0 mm 0.0 W/m2 CLR
21:43 -15.3 °C -17.6 °C 34635.4 hPa NW 41.7 km/h 41.7 km/h 75 % 0 mm 0.0 W/m2 CLR
21:48 -15.3 °C -17.6 °C 34635.4 hPa NNW 41.7 km/h 41.7 km/h 75 % 0 mm 0.0 W/m2 CLR
21:53 -15.3 °C -17.4 °C 34625.2 hPa NW 38.8 km/h 38.8 km/h 76 % 0 mm 0.0 W/m2 CLR
21:58 -15.3 °C -17.4 °C 34635.4 hPa NW 41.7 km/h 41.7 km/h 76 % 0 mm 0.0 W/m2 CLR
22:03 -15.3 °C -17.4 °C 34635.4 hPa North 32.8 km/h 32.8 km/h 76 % 0 mm 0.0 W/m2 CLR
22:08 -15.3 °C -17.4 °C 34635.4 hPa NW 32.8 km/h 32.8 km/h 76 % 0 mm 0.0 W/m2 CLR
22:13 -15.3 °C -17.4 °C 34635.4 hPa NW 38.8 km/h 38.8 km/h 76 % 0 mm 0.0 W/m2 CLR
22:18 -15.3 °C -17.4 °C 34635.4 hPa WNW 41.7 km/h 41.7 km/h 76 % 0 mm 0.0 W/m2 CLR
22:23 -15.3 °C -17.4 °C 34635.4 hPa WNW 26.9 km/h 26.9 km/h 76 % 0 mm 0.0 W/m2 CLR
22:28 -15.3 °C -17.4 °C 34635.4 hPa West 29.8 km/h 29.8 km/h 76 % 0 mm 0.0 W/m2 CLR
22:33 -15.3 °C -17.4 °C 34635.4 hPa WNW 26.9 km/h 26.9 km/h 76 % 0 mm 0.0 W/m2 CLR
22:38 -15.6 °C -17.7 °C 34645.6 hPa West 26.9 km/h 26.9 km/h 77 % 0 mm 0.0 W/m2 CLR
22:43 -15.6 °C -17.7 °C 34645.6 hPa West 23.8 km/h 23.8 km/h 77 % 0 mm 0.0 W/m2 CLR
22:48 -15.6 °C -17.6 °C 34645.6 hPa WNW 20.9 km/h 20.9 km/h 78 % 0 mm 0.0 W/m2 CLR
22:53 -15.6 °C -17.6 °C 34645.6 hPa West 26.9 km/h 26.9 km/h 78 % 0 mm 0.0 W/m2 CLR
22:54 -15.6 °C -17.6 °C 34645.6 hPa West 23.8 km/h 23.8 km/h 78 % 0 mm 0.0 W/m2 CLR
22:59 -15.9 °C -17.7 °C 34645.6 hPa WNW 26.9 km/h 26.9 km/h 79 % 0 mm 0.0 W/m2 CLR
23:04 -15.9 °C -17.7 °C 34645.6 hPa NW 20.9 km/h 20.9 km/h 79 % 0 mm 0.0 W/m2 CLR
23:09 -15.9 °C -17.7 °C 34645.6 hPa WNW 29.8 km/h 29.8 km/h 80 % 0 mm 0.0 W/m2 CLR
23:14 -15.9 °C -17.7 °C 34645.6 hPa NW 26.9 km/h 26.9 km/h 79 % 0 mm 0.0 W/m2 CLR
23:19 -15.9 °C -17.7 °C 34645.6 hPa NW 35.7 km/h 35.7 km/h 80 % 0 mm 0.0 W/m2 CLR
23:24 -15.9 °C -17.7 °C 34645.6 hPa NW 23.8 km/h 23.8 km/h 79 % 0 mm 0.0 W/m2 CLR
23:29 -15.6 °C -17.4 °C 34645.6 hPa NW 23.8 km/h 23.8 km/h 79 % 0 mm 0.0 W/m2 CLR
23:34 -15.6 °C -17.4 °C 34635.4 hPa WNW 26.9 km/h 26.9 km/h 79 % 0 mm 0.0 W/m2 CLR
23:39 -15.6 °C -17.3 °C 34635.4 hPa NW 29.8 km/h 29.8 km/h 80 % 0 mm 0.0 W/m2 CLR
23:44 -15.6 °C -17.4 °C 34635.4 hPa NW 32.8 km/h 32.8 km/h 79 % 0 mm 0.0 W/m2 CLR
23:49 -15.6 °C -17.4 °C 34635.4 hPa NW 29.8 km/h 29.8 km/h 79 % 0 mm 0.0 W/m2 CLR
23:54 -15.6 °C -17.3 °C 34635.4 hPa WNW 35.7 km/h 35.7 km/h 80 % 0 mm 0.0 W/m2 CLR
23:59 -15.6 °C -17.3 °C 34635.4 hPa WNW 26.9 km/h 26.9 km/h 80 % 0 mm 0.0 W/m2 CLR
Lo Temps de Massalio
Compliments of Weather Underground - 1.25 mb